CST,Max TemperatureF,Mean TemperatureF,Min TemperatureF,Max Dew PointF,MeanDew PointF,Min DewpointF,Max Humidity, Mean Humidity, Min Humidity, Max Sea Level PressureIn, Mean Sea Level PressureIn, Min Sea Level PressureIn, Max VisibilityMiles, Mean VisibilityMiles, Min VisibilityMiles, Max Wind SpeedMPH, Mean Wind SpeedMPH, Max Gust SpeedMPH,PrecipitationIn, CloudCover, Events, WindDirDegrees
2011-12-1,37,28,19,31,26,12,92,73,54,30.41,30.23,30.10,10,6,1,15,6,21,0.06,6,Snow,340
2011-12-2,31,22,12,24,15,8,92,71,49,30.43,30.35,30.15,10,10,8,16,7,21,0.00,1,,183
2011-12-3,34,32,29,33,31,26,100,89,78,30.17,30.00,29.80,7,2,0,20,5,25,0.46,8,Fog-Rain-Snow,202
2011-12-4,34,32,29,31,28,25,89,84,78,30.30,30.05,29.76,10,7,2,13,5,17,0.13,8,Snow,336
2011-12-5,29,25,21,23,18,14,81,70,58,30.44,30.38,30.30,10,9,2,8,4,10,0.01,8,Snow,26
2011-12-6,23,18,12,16,13,9,88,75,62,30.43,30.24,30.02,10,10,10,20,6,28,0.00,6,,236
2011-12-7,24,19,14,14,11,9,80,74,67,30.07,30.01,29.91,10,10,8,17,9,23,0.00,5,,246
2011-12-8,23,17,10,13,8,2,80,63,45,30.17,30.11,30.03,10,10,10,23,11,29,0.00,1,,260
2011-12-9,13,9,4,1,-1,-3,76,65,53,30.41,30.30,30.17,10,10,10,20,9,24,0.00,0,,269
2011-12-10,23,12,1,15,5,-4,87,68,49,30.42,30.32,30.20,10,10,8,14,7,18,0.00,3,,205
2011-12-11,43,32,20,30,23,17,92,71,49,30.24,30.19,30.13,10,7,3,18,9,25,0.00,4,,203
2011-12-12,36,35,33,34,33,30,92,87,82,30.34,30.24,30.17,5,3,1,13,6,17,0.18,8,Rain-Snow,200
2011-12-13,37,35,33,34,33,32,100,93,85,30.38,30.30,30.17,4,2,0,10,2,13,0.00,8,Fog,102
2011-12-14,36,35,33,36,33,30,100,95,89,30.20,29.85,29.52,4,2,0,13,4,15,0.44,8,Fog-Rain-Snow,108
2011-12-15,36,30,24,36,25,13,100,78,55,30.22,29.77,29.51,10,8,1,35,16,48,0.04,7,Rain-Snow,290
2011-12-16,25,21,17,14,12,11,74,67,60,30.40,30.35,30.27,10,10,10,15,6,20,0.00,5,,309
2011-12-17,28,20,11,23,16,8,88,81,74,30.36,30.18,30.04,10,8,3,14,5,20,T,6,Snow,241
2011-12-18,41,30,18,32,22,15,92,73,54,30.15,29.96,29.69,10,7,4,20,7,24,0.00,1,,218
2011-12-19,39,34,28,33,24,17,89,74,58,30.26,30.03,29.70,10,10,7,14,7,21,0.00,6,,343
2011-12-20,33,29,24,23,19,16,81,69,56,30.24,29.97,29.76,10,10,10,17,5,22,0.00,5,,190
2011-12-21,31,27,23,25,22,20,96,80,63,29.97,29.74,29.64,10,6,1,10,5,14,T,7,Snow,260
2011-12-22,29,21,13,23,17,8,78,64,50,30.33,30.15,29.93,10,10,9,15,7,21,0.00,6,,320
2011-12-23,26,18,9,21,16,6,88,77,65,30.34,30.12,29.98,10,6,0,20,7,28,0.06,7,Fog-Snow,190
2011-12-24,35,24,13,23,18,10,92,77,61,30.22,30.11,29.94,10,7,1,18,7,24,0.00,4,,188
2011-12-25,36,31,26,27,24,21,75,67,59,30.25,30.07,29.89,10,10,10,21,10,26,0.00,6,,292
2011-12-26,45,33,21,26,22,18,92,65,37,30.20,29.92,29.63,10,10,10,28,10,39,0.00,1,,205
2011-12-27,37,25,12,27,17,5,72,64,55,30.07,29.79,29.60,10,10,10,23,10,36,0.00,5,,327
2011-12-28,21,16,10,14,8,5,84,71,57,30.07,29.97,29.74,10,10,10,14,6,16,T,5,,145
2011-12-29,32,26,19,25,21,14,92,82,72,29.73,29.56,29.45,10,6,2,12,6,15,0.07,8,Snow,63
2011-12-30,31,24,17,20,18,14,92,78,63,29.88,29.74,29.64,10,9,5,9,3,13,0.00,3,,22
2011-12-31,32,22,12,30,23,10,92,82,72,29.92,29.78,29.62,10,6,1,17,6,22,0.08,5,Snow,127